createdAt,value
2022-12-20T00:01:52.307Z,27.97
2022-12-20T00:04:20.048Z,27.43
2022-12-20T00:06:47.699Z,26.87
2022-12-20T00:09:15.349Z,27.43
2022-12-20T00:11:44.448Z,27.40
2022-12-20T00:14:12.126Z,26.50
2022-12-20T00:16:40.029Z,26.20
2022-12-20T00:19:08.366Z,28.20
2022-12-20T00:21:36.755Z,28.70
2022-12-20T00:24:05.031Z,28.97
2022-12-20T00:26:34.192Z,28.10
2022-12-20T00:29:03.151Z,29.23
2022-12-20T00:31:31.970Z,28.93
2022-12-20T00:34:01.110Z,29.37
2022-12-20T00:36:30.351Z,27.53
2022-12-20T00:39:00.226Z,28.37
2022-12-20T00:41:29.071Z,27.93
2022-12-20T00:43:56.893Z,28.63
2022-12-20T00:46:26.635Z,27.77
2022-12-20T00:48:55.195Z,27.47
2022-12-20T00:51:25.954Z,32.80
2022-12-20T00:53:53.824Z,38.13
2022-12-20T00:56:21.529Z,36.47
2022-12-20T00:58:49.405Z,32.53
2022-12-20T01:01:20.792Z,30.43
2022-12-20T01:03:50.327Z,29.33
2022-12-20T01:06:18.986Z,28.00
2022-12-20T01:08:46.609Z,30.50
2022-12-20T01:11:16.520Z,30.83
2022-12-20T01:13:45.884Z,32.77
2022-12-20T01:16:15.977Z,34.97
2022-12-20T01:18:43.656Z,35.20
2022-12-20T01:21:15.032Z,31.10
2022-12-20T01:23:43.058Z,29.77
2022-12-20T01:26:14.028Z,26.23
2022-12-20T01:28:43.371Z,25.93
2022-12-20T01:31:11.606Z,26.97
2022-12-20T01:33:38.456Z,26.40
2022-12-20T01:36:06.481Z,26.57
2022-12-20T01:38:36.669Z,25.47
2022-12-20T01:41:05.214Z,26.83
2022-12-20T01:43:48.807Z,25.13
2022-12-20T01:46:16.810Z,26.83
2022-12-20T01:48:47.017Z,27.20
2022-12-20T01:51:16.514Z,26.03
2022-12-20T01:53:45.680Z,24.97
2022-12-20T01:56:13.378Z,25.97
2022-12-20T01:58:41.568Z,26.23
2022-12-20T02:01:09.389Z,25.40
2022-12-20T02:03:37.632Z,25.47
2022-12-20T02:06:17.218Z,24.83
2022-12-20T02:08:47.956Z,25.57
2022-12-20T02:11:26.277Z,25.47
2022-12-20T02:14:03.219Z,27.50
2022-12-20T02:16:35.221Z,26.93
2022-12-20T02:19:14.154Z,26.43
2022-12-20T02:21:44.504Z,24.60
2022-12-20T02:24:42.633Z,25.83
2022-12-20T02:27:46.897Z,25.60
2022-12-20T02:30:22.826Z,24.80
2022-12-20T02:32:55.597Z,25.93
2022-12-20T02:35:26.154Z,26.83
2022-12-20T02:37:55.642Z,27.63
2022-12-20T02:40:25.788Z,26.90
2022-12-20T02:42:56.115Z,25.43
2022-12-20T02:45:30.092Z,24.93
2022-12-20T02:48:00.912Z,25.30
2022-12-20T02:50:32.956Z,25.73
2022-12-20T02:53:00.810Z,24.60
2022-12-20T02:55:35.186Z,24.43
2022-12-20T02:58:06.607Z,24.97
2022-12-20T03:00:39.549Z,25.20
2022-12-20T03:03:25.797Z,24.10
2022-12-20T03:05:56.011Z,23.80
2022-12-20T03:08:24.591Z,22.30
2022-12-20T03:10:53.422Z,24.33
2022-12-20T03:13:21.445Z,22.97
2022-12-20T03:15:50.354Z,23.47
2022-12-20T03:18:17.975Z,25.13
2022-12-20T03:20:45.721Z,26.47
2022-12-20T03:23:13.422Z,26.80
2022-12-20T03:25:41.100Z,26.27
2022-12-20T03:28:08.693Z,25.73
2022-12-20T03:30:36.400Z,25.47
2022-12-20T03:33:05.522Z,25.97
2022-12-20T03:35:33.156Z,25.67
2022-12-20T03:38:00.922Z,26.00
2022-12-20T03:40:28.519Z,26.23
2022-12-20T03:42:56.173Z,26.37
2022-12-20T03:45:23.772Z,26.43
2022-12-20T03:47:51.331Z,26.03
2022-12-20T03:50:20.387Z,23.87
2022-12-20T03:52:47.942Z,24.87
2022-12-20T03:55:15.579Z,24.43
2022-12-20T03:57:43.165Z,24.40
2022-12-20T04:00:12.651Z,24.77
2022-12-20T04:02:40.440Z,26.20
2022-12-20T04:05:09.101Z,25.93
2022-12-20T04:07:38.150Z,26.53
2022-12-20T04:10:07.137Z,25.40
2022-12-20T04:12:34.783Z,25.73
2022-12-20T04:15:02.483Z,25.60
2022-12-20T04:17:32.074Z,25.97
2022-12-20T04:20:18.696Z,25.50
2022-12-20T04:22:47.884Z,24.00
2022-12-20T04:25:16.571Z,23.87
2022-12-20T04:27:44.235Z,24.40
2022-12-20T04:30:12.922Z,25.67
2022-12-20T04:32:40.627Z,25.90
2022-12-20T04:35:08.898Z,24.33
2022-12-20T04:37:36.506Z,26.87
2022-12-20T04:40:06.628Z,24.87
2022-12-20T04:42:34.291Z,23.73
2022-12-20T04:45:01.902Z,25.33
2022-12-20T04:47:29.545Z,25.23
2022-12-20T04:49:57.142Z,25.53
2022-12-20T04:52:47.724Z,24.07
2022-12-20T04:55:17.577Z,23.83
2022-12-20T04:57:45.678Z,23.90
2022-12-20T05:00:15.276Z,23.63
2022-12-20T05:02:43.446Z,23.43
2022-12-20T05:05:11.198Z,25.27
2022-12-20T05:07:38.816Z,26.13
2022-12-20T05:10:07.363Z,26.50
2022-12-20T05:12:36.266Z,26.77
2022-12-20T05:15:04.491Z,28.17
2022-12-20T05:17:32.036Z,25.70
2022-12-20T05:20:00.091Z,25.63
2022-12-20T05:22:45.291Z,26.80
2022-12-20T05:25:31.239Z,26.53
2022-12-20T05:28:00.306Z,26.67
2022-12-20T05:30:28.298Z,25.93
2022-12-20T05:32:56.456Z,26.13
2022-12-20T05:35:24.063Z,23.53
2022-12-20T05:37:51.877Z,25.03
2022-12-20T05:40:19.519Z,25.57
2022-12-20T05:42:47.112Z,24.17
2022-12-20T05:45:16.222Z,23.77
2022-12-20T05:47:43.784Z,24.03
2022-12-20T05:50:18.335Z,24.63
2022-12-20T05:52:46.710Z,24.20
2022-12-20T05:55:14.328Z,24.47
2022-12-20T05:57:41.891Z,24.50
2022-12-20T06:00:10.828Z,25.13
2022-12-20T06:02:40.183Z,25.67
2022-12-20T06:05:08.433Z,25.53
2022-12-20T06:07:36.063Z,23.97
2022-12-20T06:10:03.636Z,24.70
2022-12-20T06:12:31.271Z,23.60
2022-12-20T06:14:58.844Z,23.53
2022-12-20T06:17:26.425Z,24.90
2022-12-20T06:19:55.402Z,24.30
2022-12-20T06:22:23.004Z,23.00
2022-12-20T06:24:50.630Z,25.87
2022-12-20T06:27:18.637Z,24.47
2022-12-20T06:29:51.898Z,23.57
2022-12-20T06:32:19.610Z,25.00
2022-12-20T06:34:47.261Z,23.50
2022-12-20T06:37:16.192Z,24.40
2022-12-20T06:39:43.836Z,24.27
2022-12-20T06:42:11.454Z,24.77
2022-12-20T06:44:39.113Z,23.17
2022-12-20T06:47:06.740Z,24.13
2022-12-20T06:49:34.383Z,24.03
2022-12-20T06:52:02.082Z,21.07
2022-12-20T06:54:31.065Z,23.87
2022-12-20T06:56:58.702Z,23.60
2022-12-20T06:59:26.604Z,23.37
2022-12-20T07:01:54.484Z,24.77
2022-12-20T07:04:22.303Z,24.03
2022-12-20T07:06:50.066Z,25.13
2022-12-20T07:09:17.756Z,25.80
2022-12-20T07:11:46.675Z,24.03
2022-12-20T07:14:14.320Z,25.07
2022-12-20T07:16:46.202Z,26.23
2022-12-20T07:19:14.280Z,25.43
2022-12-20T07:21:42.082Z,27.07
2022-12-20T07:24:10.087Z,25.53
2022-12-20T07:26:37.742Z,25.63
2022-12-20T07:29:10.556Z,25.77
2022-12-20T07:31:42.791Z,26.93
2022-12-20T07:34:11.775Z,25.73
2022-12-20T07:36:39.698Z,25.13
2022-12-20T07:39:07.380Z,28.80
2022-12-20T07:41:35.046Z,28.40
2022-12-20T07:44:03.110Z,27.07
2022-12-20T07:46:32.133Z,27.60
2022-12-20T07:48:59.865Z,26.87
2022-12-20T07:51:29.694Z,24.87
2022-12-20T07:54:00.373Z,24.30
2022-12-20T07:56:28.484Z,25.57
2022-12-20T07:58:58.448Z,26.87
2022-12-20T08:01:27.340Z,26.00
2022-12-20T08:04:01.763Z,26.97
2022-12-20T08:06:29.816Z,26.43
2022-12-20T08:09:00.117Z,25.90
2022-12-20T08:11:29.112Z,25.57
2022-12-20T08:13:58.280Z,25.33
2022-12-20T08:16:26.709Z,23.73
2022-12-20T08:18:55.990Z,24.27
2022-12-20T08:21:23.689Z,24.63
2022-12-20T08:23:51.813Z,24.33
2022-12-20T08:26:19.447Z,24.30
2022-12-20T08:28:47.086Z,24.90
2022-12-20T08:31:14.876Z,25.53
2022-12-20T08:33:42.674Z,23.37
2022-12-20T08:36:14.574Z,23.57
2022-12-20T08:38:42.469Z,23.97
2022-12-20T08:41:11.714Z,23.77
2022-12-20T08:43:39.896Z,24.73
2022-12-20T08:46:08.135Z,22.50
2022-12-20T08:48:35.947Z,24.47
2022-12-20T08:51:05.525Z,24.63
2022-12-20T08:53:35.584Z,23.47
2022-12-20T08:56:07.506Z,24.60
2022-12-20T08:58:35.584Z,23.30
2022-12-20T09:01:06.823Z,23.37
2022-12-20T09:03:35.296Z,22.77
2022-12-20T09:06:06.654Z,22.53
2022-12-20T09:08:36.009Z,23.87
2022-12-20T09:11:07.416Z,24.67
2022-12-20T09:13:41.437Z,24.20
2022-12-20T09:16:11.981Z,23.27
2022-12-20T09:18:39.637Z,22.13
2022-12-20T09:21:08.029Z,23.73
2022-12-20T09:23:37.898Z,23.10
2022-12-20T09:26:06.917Z,24.60
2022-12-20T09:28:35.170Z,23.90
2022-12-20T09:31:03.637Z,23.90
2022-12-20T09:33:32.170Z,23.70
2022-12-20T09:36:00.342Z,23.20
2022-12-20T09:38:28.953Z,23.63
2022-12-20T09:41:00.106Z,22.10
2022-12-20T09:43:28.323Z,22.80
2022-12-20T09:45:57.115Z,21.67
2022-12-20T09:48:26.886Z,23.67
2022-12-20T09:51:04.687Z,25.30
2022-12-20T09:53:38.457Z,26.03
2022-12-20T09:56:12.023Z,24.27
2022-12-20T09:58:58.081Z,24.10
2022-12-20T10:01:32.631Z,27.10
2022-12-20T10:04:07.024Z,27.77
2022-12-20T10:06:43.655Z,28.93
2022-12-20T10:09:15.165Z,27.77
2022-12-20T10:11:54.437Z,26.37
2022-12-20T10:14:35.584Z,27.53
2022-12-20T10:17:06.202Z,26.70
2022-12-20T10:19:56.909Z,27.07
2022-12-20T10:22:27.462Z,24.47
2022-12-20T10:25:00.395Z,24.63
2022-12-20T10:27:29.373Z,23.87
2022-12-20T10:29:56.950Z,23.07
2022-12-20T10:32:26.036Z,22.30
2022-12-20T10:34:58.488Z,23.33
2022-12-20T10:37:26.121Z,21.57
2022-12-20T10:39:53.848Z,21.87
2022-12-20T10:42:27.003Z,19.97
2022-12-20T10:44:56.670Z,19.83
2022-12-20T10:47:40.110Z,20.13
2022-12-20T10:50:15.616Z,21.70
2022-12-20T10:52:43.317Z,22.73
2022-12-20T10:55:34.286Z,21.97
2022-12-20T10:58:04.432Z,21.93
2022-12-20T11:00:33.839Z,23.07
2022-12-20T11:03:13.747Z,22.27
2022-12-20T11:05:41.588Z,22.43
2022-12-20T11:11:16.986Z,21.90
2022-12-20T11:13:45.584Z,20.80
2022-12-20T11:16:36.420Z,22.70
2022-12-20T11:19:17.344Z,20.33
2022-12-20T11:21:49.234Z,20.73
2022-12-20T11:24:23.756Z,21.33
2022-12-20T11:27:01.808Z,19.80
2022-12-20T11:30:00.899Z,20.27
2022-12-20T11:32:43.062Z,20.23
2022-12-20T11:35:16.037Z,18.80
2022-12-20T11:37:49.133Z,20.73
2022-12-20T11:40:26.815Z,19.67
2022-12-20T11:43:16.078Z,20.00
2022-12-20T11:45:56.658Z,19.33
2022-12-20T11:48:38.317Z,20.13
2022-12-20T11:51:15.209Z,21.70
2022-12-20T11:53:49.003Z,19.03
2022-12-20T11:56:18.550Z,19.33
2022-12-20T11:58:51.771Z,20.43
2022-12-20T12:01:21.954Z,20.63
2022-12-20T12:04:01.744Z,20.37
2022-12-20T12:06:32.715Z,20.87
2022-12-20T12:09:07.987Z,20.10
2022-12-20T12:14:32.725Z,20.23
2022-12-20T12:17:07.709Z,20.93
2022-12-20T12:19:37.973Z,21.40
2022-12-20T12:22:08.735Z,23.60
2022-12-20T12:24:40.360Z,23.60
2022-12-20T12:27:16.040Z,21.90
2022-12-20T12:29:44.060Z,22.07
2022-12-20T12:32:18.374Z,22.67
2022-12-20T12:35:00.499Z,23.27
2022-12-20T12:37:40.314Z,21.30
2022-12-20T12:40:24.997Z,21.20
2022-12-20T12:43:41.104Z,22.47
2022-12-20T12:46:16.345Z,23.53
2022-12-20T12:48:47.470Z,22.43
2022-12-20T12:51:17.346Z,26.53
2022-12-20T12:53:49.688Z,27.77
2022-12-20T12:56:44.579Z,26.57
2022-12-20T12:59:51.806Z,25.67
2022-12-20T13:02:50.104Z,25.50
2022-12-20T13:05:36.575Z,24.90
2022-12-20T13:08:17.015Z,21.87
2022-12-20T13:11:02.809Z,21.77
2022-12-20T13:13:30.475Z,21.30
2022-12-20T13:16:48.753Z,21.03
2022-12-20T13:19:17.972Z,19.93
2022-12-20T13:21:46.679Z,21.43
2022-12-20T13:24:42.401Z,21.33
2022-12-20T13:27:30.412Z,22.47
2022-12-20T13:30:18.768Z,21.57
2022-12-20T13:33:25.802Z,22.60
2022-12-20T13:36:01.903Z,21.57
2022-12-20T13:38:51.672Z,21.43
2022-12-20T13:41:40.230Z,22.03
2022-12-20T13:44:22.628Z,21.30
2022-12-20T13:46:53.402Z,21.83
2022-12-20T13:49:25.710Z,23.13
2022-12-20T13:52:13.071Z,23.23
2022-12-20T13:54:42.181Z,22.30
2022-12-20T13:57:16.663Z,22.13
2022-12-20T13:59:47.326Z,22.43
2022-12-20T14:02:21.484Z,22.20
2022-12-20T14:04:57.144Z,21.97
2022-12-20T14:07:24.761Z,21.47
2022-12-20T14:09:58.042Z,22.37
2022-12-20T14:12:34.428Z,22.40
2022-12-20T14:15:20.245Z,21.87
2022-12-20T14:17:47.971Z,22.77
2022-12-20T14:20:17.123Z,21.83
2022-12-20T14:22:52.260Z,21.73
2022-12-20T14:25:27.893Z,27.80
2022-12-20T14:27:57.246Z,22.40
2022-12-20T14:30:30.184Z,21.57
2022-12-20T14:32:58.008Z,21.53
2022-12-20T14:35:26.095Z,20.20
2022-12-20T14:37:55.624Z,20.77
2022-12-20T14:40:23.790Z,22.30
2022-12-20T14:42:51.638Z,21.17
2022-12-20T14:45:26.675Z,21.33
2022-12-20T14:48:03.143Z,21.37
2022-12-20T14:50:32.750Z,20.90
2022-12-20T14:53:01.052Z,21.20
2022-12-20T14:55:34.205Z,21.27
2022-12-20T14:58:01.839Z,21.87
2022-12-20T15:00:32.050Z,21.13
2022-12-20T15:03:03.420Z,20.57
2022-12-20T15:05:57.193Z,20.63
2022-12-20T15:08:28.177Z,21.00
2022-12-20T15:11:03.481Z,20.90
2022-12-20T15:13:33.038Z,22.03
2022-12-20T15:16:04.461Z,22.13
2022-12-20T15:18:32.494Z,22.07
2022-12-20T15:21:06.228Z,21.70
2022-12-20T15:23:34.344Z,22.90
2022-12-20T15:26:02.810Z,21.77
2022-12-20T15:28:30.562Z,22.83
2022-12-20T15:30:58.527Z,23.30
2022-12-20T15:33:28.990Z,22.83
2022-12-20T15:35:57.463Z,24.27
2022-12-20T15:38:54.656Z,27.43
2022-12-20T15:41:20.241Z,24.53
2022-12-20T15:43:48.589Z,23.63
2022-12-20T15:46:16.282Z,23.67
2022-12-20T15:48:45.325Z,24.07
2022-12-20T15:51:16.818Z,22.93
2022-12-20T15:53:44.789Z,23.73
2022-12-20T15:56:19.063Z,22.73
2022-12-20T15:58:47.386Z,21.07
2022-12-20T16:01:18.786Z,22.33
2022-12-20T16:03:47.953Z,21.13
2022-12-20T16:06:15.633Z,21.53
2022-12-20T16:08:43.284Z,19.73
2022-12-20T16:11:20.399Z,18.60
2022-12-20T16:13:48.262Z,19.00
2022-12-20T16:16:18.334Z,18.13
2022-12-20T16:18:47.542Z,18.70
2022-12-20T16:21:18.581Z,19.17
2022-12-20T16:23:46.129Z,18.50
2022-12-20T16:26:14.645Z,17.40
2022-12-20T16:28:42.235Z,17.93
2022-12-20T16:31:12.509Z,18.07
2022-12-20T16:33:40.117Z,18.13
2022-12-20T16:36:11.042Z,17.03
2022-12-20T16:38:38.617Z,17.03
2022-12-20T16:41:13.801Z,18.40
2022-12-20T16:43:41.541Z,19.17
2022-12-20T16:46:12.338Z,20.60
2022-12-20T16:48:40.183Z,21.57
2022-12-20T16:51:25.831Z,24.90
2022-12-20T16:54:18.203Z,23.50
2022-12-20T16:56:41.755Z,22.47
2022-12-20T16:59:25.130Z,20.47
2022-12-20T17:01:54.550Z,20.40
2022-12-20T17:04:23.039Z,21.27
2022-12-20T17:06:51.920Z,20.97
2022-12-20T17:09:20.148Z,22.00
2022-12-20T17:11:49.987Z,26.20
2022-12-20T17:14:18.335Z,28.23
2022-12-20T17:16:45.963Z,24.97
2022-12-20T17:19:13.777Z,22.60
2022-12-20T17:24:31.574Z,21.23
2022-12-20T17:27:00.284Z,21.97
2022-12-20T17:29:28.043Z,20.90
2022-12-20T17:31:55.801Z,20.33
2022-12-20T17:34:26.271Z,21.73
2022-12-20T17:36:55.337Z,20.27
2022-12-20T17:39:23.208Z,21.47
2022-12-20T17:41:53.987Z,19.93
2022-12-20T17:44:23.795Z,20.87
2022-12-20T17:46:51.636Z,19.97
2022-12-20T17:49:19.630Z,18.50
2022-12-20T17:51:47.780Z,18.27
2022-12-20T17:54:18.788Z,18.90
2022-12-20T17:56:46.581Z,18.90
2022-12-20T17:59:15.689Z,17.57
2022-12-20T18:01:44.304Z,17.90
2022-12-20T18:04:13.625Z,18.83
2022-12-20T18:06:42.954Z,17.53
2022-12-20T18:09:14.802Z,17.27
2022-12-20T18:11:42.730Z,17.63
2022-12-20T18:14:10.721Z,17.33
2022-12-20T18:16:40.309Z,17.70
2022-12-20T18:19:08.807Z,19.27
2022-12-20T18:21:36.365Z,19.60
2022-12-20T18:24:04.109Z,18.87
2022-12-20T18:26:33.342Z,18.67
2022-12-20T18:29:03.402Z,19.13
2022-12-20T18:31:33.161Z,19.20
2022-12-20T18:34:02.879Z,19.27
2022-12-20T18:36:32.224Z,22.20
2022-12-20T18:39:00.792Z,18.03
2022-12-20T18:41:30.631Z,16.67
2022-12-20T18:43:59.662Z,18.17
2022-12-20T18:46:27.897Z,16.57
2022-12-20T18:48:57.368Z,16.87
2022-12-20T18:51:27.846Z,16.03
2022-12-20T18:53:56.809Z,17.10
2022-12-20T18:56:28.754Z,17.40
2022-12-20T18:58:57.509Z,16.87
2022-12-20T19:01:27.734Z,17.27
2022-12-20T19:03:56.122Z,17.37
2022-12-20T19:06:24.280Z,15.60
2022-12-20T19:08:53.210Z,16.17
2022-12-20T19:11:24.070Z,16.30
2022-12-20T19:13:52.298Z,16.70
2022-12-20T19:16:21.522Z,16.33
2022-12-20T19:18:49.631Z,16.70
2022-12-20T19:21:18.422Z,15.57
2022-12-20T19:23:48.451Z,15.87
2022-12-20T19:26:18.415Z,15.87
2022-12-20T19:28:46.951Z,15.70
2022-12-20T19:31:21.636Z,14.80
2022-12-20T19:33:50.339Z,15.90
2022-12-20T19:36:20.436Z,16.57
2022-12-20T19:38:50.502Z,15.10
2022-12-20T19:41:20.680Z,15.50
2022-12-20T19:43:49.161Z,15.87
2022-12-20T19:46:17.074Z,15.70
2022-12-20T19:48:44.728Z,15.93
2022-12-20T19:51:15.498Z,14.93
2022-12-20T19:53:44.607Z,15.13
2022-12-20T19:56:13.889Z,14.73
2022-12-20T19:58:43.078Z,15.90
2022-12-20T20:01:11.766Z,15.13
2022-12-20T20:03:39.984Z,16.50
2022-12-20T20:06:08.615Z,18.27
2022-12-20T20:08:36.553Z,17.70
2022-12-20T20:11:09.361Z,17.90
2022-12-20T20:13:38.191Z,17.93
2022-12-20T20:16:08.339Z,18.20
2022-12-20T20:18:37.926Z,16.87
2022-12-20T20:21:08.557Z,17.37
2022-12-20T20:23:37.542Z,15.47
2022-12-20T20:26:08.184Z,16.20
2022-12-20T20:28:43.749Z,16.13
2022-12-20T20:31:15.698Z,15.03
2022-12-20T20:33:43.933Z,15.13
2022-12-20T20:36:14.335Z,13.77
2022-12-20T20:38:46.004Z,14.07
2022-12-20T20:41:18.180Z,15.63
2022-12-20T20:43:47.174Z,13.93
2022-12-20T20:46:17.066Z,14.43
2022-12-20T20:48:48.304Z,15.43
2022-12-20T20:51:17.031Z,15.40
2022-12-20T20:53:44.645Z,15.67
2022-12-20T20:56:12.338Z,15.10
2022-12-20T20:58:40.353Z,16.17
2022-12-20T21:01:09.402Z,16.33
2022-12-20T21:03:40.060Z,15.80
2022-12-20T21:08:55.997Z,16.20
2022-12-20T21:11:24.417Z,17.00
2022-12-20T21:13:52.138Z,17.63
2022-12-20T21:16:22.220Z,16.53
2022-12-20T21:18:53.029Z,18.87
2022-12-20T21:21:21.258Z,24.17
2022-12-20T21:23:49.364Z,24.50
2022-12-20T21:26:18.250Z,22.93
2022-12-20T21:28:45.979Z,22.40
2022-12-20T21:31:14.712Z,21.43
2022-12-20T21:33:42.474Z,22.17
2022-12-20T21:36:13.793Z,23.53
2022-12-20T21:38:41.595Z,23.13
2022-12-20T21:41:11.736Z,21.77
2022-12-20T21:43:39.404Z,22.23
2022-12-20T21:46:11.053Z,21.80
2022-12-20T21:48:39.447Z,21.53
2022-12-20T21:51:09.997Z,21.97
2022-12-20T21:53:42.965Z,20.37
2022-12-20T21:56:10.599Z,20.30
2022-12-20T21:58:38.635Z,20.60
2022-12-20T22:01:07.859Z,21.90
2022-12-20T22:03:36.612Z,20.57
2022-12-20T22:06:05.123Z,19.93
2022-12-20T22:08:33.192Z,19.23
2022-12-20T22:11:04.015Z,20.60
2022-12-20T22:13:37.218Z,20.40
2022-12-20T22:16:08.703Z,20.47
2022-12-20T22:18:36.680Z,21.27
2022-12-20T22:21:04.383Z,20.10
2022-12-20T22:23:32.211Z,19.03
2022-12-20T22:26:03.871Z,19.93
2022-12-20T22:28:31.521Z,18.57
2022-12-20T22:30:59.143Z,18.40
2022-12-20T22:33:26.853Z,18.60
2022-12-20T22:35:54.481Z,19.77
2022-12-20T22:38:22.082Z,18.63
2022-12-20T22:40:49.727Z,18.87
2022-12-20T22:43:18.664Z,20.13
2022-12-20T22:45:57.247Z,19.17
2022-12-20T22:48:24.899Z,19.37
2022-12-20T22:50:59.311Z,20.17
2022-12-20T22:53:27.037Z,20.13
2022-12-20T22:55:54.843Z,19.70
2022-12-20T22:58:24.710Z,19.73
2022-12-20T23:00:52.314Z,19.83
2022-12-20T23:03:19.990Z,20.37
2022-12-20T23:05:55.056Z,20.03
2022-12-20T23:08:23.728Z,20.77
2022-12-20T23:11:08.912Z,19.67
2022-12-20T23:13:56.591Z,20.20
2022-12-20T23:16:24.820Z,19.27
2022-12-20T23:18:55.162Z,19.03
2022-12-20T23:21:40.456Z,19.27
2022-12-20T23:24:08.443Z,19.53
2022-12-20T23:26:36.298Z,20.17
2022-12-20T23:29:06.054Z,19.87
2022-12-20T23:31:34.233Z,19.87
2022-12-20T23:34:02.587Z,20.23
2022-12-20T23:36:30.331Z,20.13
2022-12-20T23:38:58.019Z,19.30
2022-12-20T23:41:25.601Z,20.13
2022-12-20T23:43:53.135Z,17.93
2022-12-20T23:46:22.673Z,19.90
2022-12-20T23:48:50.828Z,19.40
2022-12-20T23:51:18.983Z,19.17
2022-12-20T23:53:46.518Z,19.10
2022-12-20T23:56:15.877Z,18.23
2022-12-20T23:58:43.683Z,18.60
